createdAt,value
2019-01-23T00:03:09.349Z,31.13
2019-01-23T00:09:15.287Z,30.90
2019-01-23T00:15:21.364Z,30.10
2019-01-23T00:21:27.117Z,28.43
2019-01-23T00:27:32.959Z,30.80
2019-01-23T00:33:38.876Z,30.60
2019-01-23T00:39:44.621Z,29.03
2019-01-23T00:45:50.429Z,31.10
2019-01-23T00:51:56.161Z,29.33
2019-01-23T00:58:01.993Z,30.47
2019-01-23T01:04:08.114Z,30.53
2019-01-23T01:10:15.603Z,30.40
2019-01-23T01:16:21.372Z,29.83
2019-01-23T01:22:27.757Z,30.37
2019-01-23T01:28:33.626Z,31.37
2019-01-23T01:34:39.548Z,29.73
2019-01-23T01:40:45.388Z,30.20
2019-01-23T01:46:51.347Z,28.37
2019-01-23T01:52:57.074Z,29.23
2019-01-23T01:59:03.146Z,28.97
2019-01-23T02:05:09.551Z,29.83
2019-01-23T02:11:15.572Z,30.20
2019-01-23T02:17:21.378Z,30.53
2019-01-23T02:23:27.248Z,29.97
2019-01-23T02:29:33.334Z,29.30
2019-01-23T02:35:39.166Z,28.30
2019-01-23T02:41:45.049Z,27.73
2019-01-23T02:47:51.091Z,29.37
2019-01-23T02:53:57.092Z,28.37
2019-01-23T03:00:02.946Z,27.30
2019-01-23T03:06:08.920Z,27.13
2019-01-23T03:12:14.633Z,26.50
2019-01-23T03:18:20.463Z,24.63
2019-01-23T03:24:26.221Z,26.50
2019-01-23T03:30:32.175Z,25.17
2019-01-23T03:36:40.254Z,26.37
2019-01-23T03:42:45.991Z,25.80
2019-01-23T03:48:51.701Z,24.83
2019-01-23T03:54:57.623Z,26.60
2019-01-23T04:01:03.395Z,26.77
2019-01-23T04:07:09.312Z,26.97
2019-01-23T04:13:19.254Z,27.10
2019-01-23T04:19:25.034Z,26.07
2019-01-23T04:25:31.051Z,24.90
2019-01-23T04:31:36.870Z,26.07
2019-01-23T04:37:42.872Z,27.20
2019-01-23T04:43:48.894Z,26.63
2019-01-23T04:49:54.630Z,25.03
2019-01-23T04:56:00.331Z,25.70
2019-01-23T05:02:06.233Z,28.07
2019-01-23T05:08:12.013Z,26.77
2019-01-23T05:14:17.800Z,27.57
2019-01-23T05:20:23.640Z,26.23
2019-01-23T05:26:29.616Z,27.47
2019-01-23T05:32:35.656Z,28.53
2019-01-23T05:38:41.573Z,27.87
2019-01-23T05:44:47.841Z,27.27
2019-01-23T05:50:53.628Z,27.70
2019-01-23T05:56:59.376Z,28.40
2019-01-23T06:03:05.203Z,28.40
2019-01-23T06:09:11.939Z,27.03
2019-01-23T06:15:17.992Z,27.80
2019-01-23T06:21:23.702Z,26.97
2019-01-23T06:27:29.424Z,26.97
2019-01-23T06:33:35.333Z,24.17
2019-01-23T06:39:41.403Z,26.63
2019-01-23T06:45:47.514Z,26.70
2019-01-23T06:51:56.004Z,25.33
2019-01-23T06:58:01.964Z,26.40
2019-01-23T07:04:07.677Z,26.70
2019-01-23T07:10:17.838Z,27.33
2019-01-23T07:16:23.673Z,26.63
2019-01-23T07:22:29.930Z,27.67
2019-01-23T07:28:37.933Z,26.93
2019-01-23T07:34:43.739Z,28.90
2019-01-23T07:40:49.503Z,27.67
2019-01-23T07:46:55.464Z,28.60
2019-01-23T07:53:01.178Z,27.87
2019-01-23T07:59:07.020Z,28.17
2019-01-23T08:05:19.434Z,27.70
2019-01-23T08:11:21.747Z,29.17
2019-01-23T08:17:32.713Z,30.23
2019-01-23T08:23:35.477Z,29.60
2019-01-23T08:29:41.297Z,30.17
2019-01-23T08:35:47.108Z,30.77
2019-01-23T08:41:57.999Z,30.70
2019-01-23T08:48:03.704Z,30.37
2019-01-23T08:54:12.039Z,30.37
2019-01-23T09:00:18.133Z,31.40
2019-01-23T09:06:24.227Z,29.63
2019-01-23T09:12:30.138Z,30.63
2019-01-23T09:18:35.874Z,31.53
2019-01-23T09:24:43.467Z,30.13
2019-01-23T09:31:14.952Z,29.90
2019-01-23T09:38:01.622Z,31.27
2019-01-23T09:45:01.566Z,32.33
2019-01-23T09:52:21.423Z,31.23
2019-01-23T09:58:27.159Z,30.27
2019-01-23T10:04:35.964Z,31.17
2019-01-23T10:10:41.769Z,30.20
2019-01-23T10:16:47.805Z,32.87
2019-01-23T10:22:53.934Z,31.20
2019-01-23T10:28:59.795Z,30.17
2019-01-23T10:35:07.347Z,30.10
2019-01-23T10:41:13.158Z,30.57
2019-01-23T10:47:19.086Z,29.63
2019-01-23T10:53:26.622Z,28.60
2019-01-23T10:59:35.018Z,28.50
2019-01-23T11:05:41.064Z,27.87
2019-01-23T11:11:49.387Z,28.27
2019-01-23T11:17:55.127Z,29.03
2019-01-23T11:24:01.662Z,30.27
2019-01-23T11:30:15.381Z,29.60
2019-01-23T11:36:21.148Z,29.60
2019-01-23T11:42:27.262Z,29.90
2019-01-23T11:48:33.050Z,29.40
2019-01-23T11:54:38.773Z,28.10
2019-01-23T12:00:44.643Z,27.60
2019-01-23T12:06:50.422Z,28.13
2019-01-23T12:12:56.221Z,29.77
2019-01-23T12:19:03.838Z,29.43
2019-01-23T12:25:12.726Z,30.80
2019-01-23T12:31:18.370Z,31.17
2019-01-23T12:37:24.141Z,30.70
2019-01-23T12:43:29.848Z,32.73
2019-01-23T12:49:35.598Z,29.87
2019-01-23T12:55:41.372Z,30.87
2019-01-23T13:01:47.177Z,33.43
2019-01-23T13:07:53.377Z,31.60
2019-01-23T13:13:59.251Z,32.53
2019-01-23T13:20:06.839Z,29.77
2019-01-23T13:26:12.696Z,26.10
2019-01-23T13:32:21.041Z,28.40
2019-01-23T13:38:28.386Z,28.37
2019-01-23T13:44:34.119Z,29.07
2019-01-23T13:50:40.023Z,28.97
2019-01-23T13:56:46.242Z,30.13
2019-01-23T14:02:52.060Z,29.90
2019-01-23T14:08:57.831Z,29.90
2019-01-23T14:15:09.923Z,28.90
2019-01-23T14:21:15.907Z,28.17
2019-01-23T14:27:21.686Z,25.57
2019-01-23T14:33:27.844Z,26.80
2019-01-23T14:39:33.741Z,27.93
2019-01-23T14:45:39.561Z,26.20
2019-01-23T14:51:45.241Z,23.33
2019-01-23T14:57:51.045Z,23.47
2019-01-23T15:04:00.952Z,22.03
2019-01-23T15:10:14.042Z,25.07
2019-01-23T15:16:20.216Z,25.87
2019-01-23T15:22:27.601Z,26.17
2019-01-23T15:28:33.359Z,27.87
2019-01-23T15:34:39.295Z,28.97
2019-01-23T15:40:45.342Z,30.03
2019-01-23T15:46:51.032Z,30.73
2019-01-23T15:52:59.835Z,30.77
2019-01-23T15:59:05.785Z,29.47
2019-01-23T16:05:11.952Z,30.47
2019-01-23T16:11:17.966Z,29.83
2019-01-23T16:17:23.787Z,28.00
2019-01-23T16:23:29.724Z,30.27
2019-01-23T16:29:35.481Z,27.57
2019-01-23T16:35:41.634Z,27.97
2019-01-23T16:41:47.698Z,29.50
2019-01-23T16:47:53.527Z,30.73
2019-01-23T16:53:59.966Z,31.53
2019-01-23T17:00:08.196Z,31.43
2019-01-23T17:06:14.194Z,33.60
2019-01-23T17:12:19.902Z,32.77
2019-01-23T17:18:25.699Z,34.37
2019-01-23T17:24:31.433Z,32.63
2019-01-23T17:30:37.234Z,32.33
2019-01-23T17:36:45.030Z,35.80
2019-01-23T17:42:53.946Z,33.50
2019-01-23T17:48:59.914Z,34.07
2019-01-23T17:55:08.489Z,33.87
2019-01-23T18:01:14.312Z,34.17
2019-01-23T18:07:20.810Z,36.63
2019-01-23T18:13:26.698Z,34.93
2019-01-23T18:19:32.758Z,32.57
2019-01-23T18:25:38.607Z,33.87
2019-01-23T18:31:56.049Z,37.57
2019-01-23T18:38:31.335Z,35.80
2019-01-23T18:45:19.282Z,35.20
2019-01-23T18:52:05.329Z,35.83
2019-01-23T18:58:17.736Z,34.80
2019-01-23T19:04:25.512Z,34.97
2019-01-23T19:10:31.485Z,35.07
2019-01-23T19:16:40.411Z,35.77
2019-01-23T19:22:46.377Z,35.30
2019-01-23T19:28:52.426Z,37.47
2019-01-23T19:34:58.355Z,34.63
2019-01-23T19:41:04.994Z,36.03
2019-01-23T19:47:11.693Z,37.40
2019-01-23T19:53:17.582Z,34.30
2019-01-23T19:59:23.547Z,34.90
2019-01-23T20:05:34.603Z,35.90
2019-01-23T20:11:40.898Z,33.97
2019-01-23T20:17:46.932Z,33.93
2019-01-23T20:23:53.482Z,34.50
2019-01-23T20:30:03.165Z,34.17
2019-01-23T20:36:09.014Z,36.03
2019-01-23T20:42:14.855Z,34.93
2019-01-23T20:48:20.778Z,34.50
2019-01-23T20:54:26.549Z,32.87
2019-01-23T21:00:35.455Z,33.97
2019-01-23T21:06:44.950Z,34.20
2019-01-23T21:12:50.720Z,32.63
2019-01-23T21:18:58.080Z,33.47
2019-01-23T21:25:04.105Z,32.90
2019-01-23T21:31:09.955Z,32.90
2019-01-23T21:37:16.328Z,32.10
2019-01-23T21:43:22.203Z,32.10
2019-01-23T21:49:28.304Z,31.87
2019-01-23T21:55:34.354Z,32.33
2019-01-23T22:01:40.355Z,32.73
2019-01-23T22:07:46.369Z,32.33
2019-01-23T22:13:52.155Z,34.17
2019-01-23T22:19:58.266Z,33.70
2019-01-23T22:26:04.454Z,32.03
2019-01-23T22:32:10.676Z,31.73
2019-01-23T22:38:16.632Z,32.90
2019-01-23T22:44:22.565Z,32.63
2019-01-23T22:50:29.698Z,34.03
2019-01-23T22:56:35.531Z,33.43
2019-01-23T23:02:41.601Z,34.87
2019-01-23T23:08:47.899Z,32.33
2019-01-23T23:14:53.749Z,32.43
2019-01-23T23:20:59.854Z,34.67
2019-01-23T23:27:06.103Z,33.53
2019-01-23T23:33:12.038Z,31.07
2019-01-23T23:39:18.112Z,30.97
2019-01-23T23:45:24.131Z,31.03
2019-01-23T23:51:29.938Z,31.53
2019-01-23T23:57:37.596Z,32.37
